createdAt,value
2023-01-15T00:00:05.000Z,5
2023-01-15T00:01:22.000Z,5
2023-01-15T00:02:38.000Z,5
2023-01-15T00:03:54.000Z,5
2023-01-15T00:05:09.000Z,5
2023-01-15T00:06:25.000Z,5
2023-01-15T00:07:42.000Z,5
2023-01-15T00:08:58.000Z,5
2023-01-15T00:10:14.000Z,5
2023-01-15T00:11:30.000Z,5
2023-01-15T00:12:47.000Z,5
2023-01-15T00:14:03.000Z,5
2023-01-15T00:15:19.000Z,5
2023-01-15T00:16:35.000Z,5
2023-01-15T00:17:52.000Z,5
2023-01-15T00:19:08.000Z,5
2023-01-15T00:20:24.000Z,5
2023-01-15T00:21:39.000Z,5
2023-01-15T00:22:56.000Z,5
2023-01-15T00:24:11.000Z,5
2023-01-15T00:25:26.000Z,5
2023-01-15T00:26:41.000Z,5
2023-01-15T00:27:57.000Z,5
2023-01-15T00:29:13.000Z,5
2023-01-15T00:30:29.000Z,5
2023-01-15T00:31:45.000Z,5
2023-01-15T00:33:02.000Z,5
2023-01-15T00:34:18.000Z,5
2023-01-15T00:35:34.000Z,5
2023-01-15T00:36:50.000Z,5
2023-01-15T00:38:06.000Z,5
2023-01-15T00:39:23.000Z,5
2023-01-15T00:40:39.000Z,5
2023-01-15T00:41:55.000Z,5
2023-01-15T00:43:11.000Z,5
2023-01-15T00:44:27.000Z,5
2023-01-15T00:45:43.000Z,5
2023-01-15T00:46:59.000Z,5
2023-01-15T00:48:15.000Z,5
2023-01-15T00:49:32.000Z,5
2023-01-15T00:50:48.000Z,5
2023-01-15T00:52:04.000Z,5
2023-01-15T00:53:20.000Z,5
2023-01-15T00:54:37.000Z,5
2023-01-15T00:55:53.000Z,5
2023-01-15T00:57:09.000Z,5
2023-01-15T00:58:25.000Z,5
2023-01-15T00:59:41.000Z,5
2023-01-15T01:00:57.000Z,5
2023-01-15T01:02:13.000Z,5
2023-01-15T01:03:29.000Z,5
2023-01-15T01:04:45.000Z,5
2023-01-15T01:06:02.000Z,5
2023-01-15T01:07:18.000Z,5
2023-01-15T01:08:34.000Z,5
2023-01-15T01:09:50.000Z,5
2023-01-15T01:11:07.000Z,5
2023-01-15T01:12:23.000Z,5
2023-01-15T01:13:39.000Z,5
2023-01-15T01:14:55.000Z,5
2023-01-15T01:16:12.000Z,5
2023-01-15T01:17:27.000Z,5
2023-01-15T01:18:43.000Z,5
2023-01-15T01:19:59.000Z,5
2023-01-15T01:21:15.000Z,5
2023-01-15T01:22:32.000Z,5
2023-01-15T01:23:48.000Z,5
2023-01-15T01:25:04.000Z,5
2023-01-15T01:26:20.000Z,5
2023-01-15T01:27:37.000Z,5
2023-01-15T01:28:53.000Z,5
2023-01-15T01:30:09.000Z,5
2023-01-15T01:31:25.000Z,5
2023-01-15T01:32:42.000Z,5
2023-01-15T01:33:57.000Z,5
2023-01-15T01:35:13.000Z,5
2023-01-15T01:36:29.000Z,5
2023-01-15T01:37:46.000Z,5
2023-01-15T01:39:02.000Z,5
2023-01-15T01:40:18.000Z,5
2023-01-15T01:41:34.000Z,5
2023-01-15T01:42:50.000Z,5
2023-01-15T01:44:07.000Z,5
2023-01-15T01:45:23.000Z,5
2023-01-15T01:46:39.000Z,5
2023-01-15T01:47:55.000Z,5
2023-01-15T01:49:12.000Z,5
2023-01-15T01:50:27.000Z,5
2023-01-15T01:51:43.000Z,5
2023-01-15T01:52:59.000Z,5
2023-01-15T01:54:15.000Z,5
2023-01-15T01:55:31.000Z,5
2023-01-15T01:56:47.000Z,5
2023-01-15T01:58:03.000Z,5
2023-01-15T01:59:20.000Z,5
2023-01-15T02:00:36.000Z,5
2023-01-15T02:01:52.000Z,5
2023-01-15T02:03:08.000Z,5
2023-01-15T02:04:24.000Z,5
2023-01-15T02:05:41.000Z,5
2023-01-15T02:06:57.000Z,5
2023-01-15T02:08:13.000Z,5
2023-01-15T02:09:29.000Z,5
2023-01-15T02:10:45.000Z,5
2023-01-15T02:12:01.000Z,5
2023-01-15T02:13:17.000Z,5
2023-01-15T02:14:33.000Z,5
2023-01-15T02:15:50.000Z,5
2023-01-15T02:17:06.000Z,5
2023-01-15T02:18:22.000Z,5
2023-01-15T02:19:38.000Z,5
2023-01-15T02:20:55.000Z,5
2023-01-15T02:22:11.000Z,5
2023-01-15T02:23:27.000Z,5
2023-01-15T02:24:43.000Z,5
2023-01-15T02:25:59.000Z,5
2023-01-15T02:27:15.000Z,5
2023-01-15T02:28:31.000Z,5
2023-01-15T02:29:47.000Z,5
2023-01-15T02:31:03.000Z,5
2023-01-15T02:32:20.000Z,5
2023-01-15T02:33:36.000Z,5
2023-01-15T02:34:52.000Z,5
2023-01-15T02:36:08.000Z,5
2023-01-15T02:37:25.000Z,5
2023-01-15T02:38:41.000Z,5
2023-01-15T02:39:57.000Z,5
2023-01-15T02:41:13.000Z,5
2023-01-15T02:42:29.000Z,5
2023-01-15T02:43:45.000Z,5
2023-01-15T02:45:01.000Z,5
2023-01-15T02:46:17.000Z,5
2023-01-15T02:47:33.000Z,5
2023-01-15T02:48:50.000Z,5
2023-01-15T02:50:06.000Z,5
2023-01-15T02:51:22.000Z,5
2023-01-15T02:52:38.000Z,5
2023-01-15T02:53:55.000Z,5
2023-01-15T02:55:11.000Z,5
2023-01-15T02:56:26.000Z,5
2023-01-15T02:57:41.000Z,5
2023-01-15T02:58:58.000Z,5
2023-01-15T03:00:13.000Z,5
2023-01-15T03:01:28.000Z,5
2023-01-15T03:02:44.000Z,5
2023-01-15T03:04:01.000Z,5
2023-01-15T03:05:17.000Z,5
2023-01-15T03:06:33.000Z,5
2023-01-15T03:07:49.000Z,5
2023-01-15T03:09:06.000Z,5
2023-01-15T03:10:22.000Z,5
2023-01-15T03:11:38.000Z,5
2023-01-15T03:12:54.000Z,5
2023-01-15T03:14:10.000Z,5
2023-01-15T03:15:27.000Z,5
2023-01-15T03:16:43.000Z,5
2023-01-15T03:17:58.000Z,5
2023-01-15T03:19:14.000Z,5
2023-01-15T03:20:31.000Z,5
2023-01-15T03:21:47.000Z,5
2023-01-15T03:23:03.000Z,5
2023-01-15T03:24:19.000Z,5
2023-01-15T03:25:36.000Z,5
2023-01-15T03:26:51.000Z,5
2023-01-15T03:28:06.000Z,5
2023-01-15T03:29:21.000Z,5
2023-01-15T03:30:37.000Z,5
2023-01-15T03:31:53.000Z,5
2023-01-15T03:33:09.000Z,5
2023-01-15T03:34:25.000Z,5
2023-01-15T03:35:42.000Z,5
2023-01-15T03:36:58.000Z,5
2023-01-15T03:38:14.000Z,5
2023-01-15T03:39:30.000Z,5
2023-01-15T03:40:46.000Z,5
2023-01-15T03:42:03.000Z,5
2023-01-15T03:43:19.000Z,5
2023-01-15T03:44:35.000Z,5
2023-01-15T03:45:51.000Z,5
2023-01-15T03:47:07.000Z,5
2023-01-15T03:48:23.000Z,5
2023-01-15T03:49:39.000Z,5
2023-01-15T03:50:55.000Z,5
2023-01-15T03:52:12.000Z,5
2023-01-15T03:53:28.000Z,5
2023-01-15T03:54:44.000Z,5
2023-01-15T03:55:59.000Z,5
2023-01-15T03:57:15.000Z,5
2023-01-15T03:58:30.000Z,5
2023-01-15T03:59:45.000Z,5
2023-01-15T04:01:01.000Z,5
2023-01-15T04:02:18.000Z,5
2023-01-15T04:03:34.000Z,5
2023-01-15T04:04:50.000Z,5
2023-01-15T04:06:06.000Z,5
2023-01-15T04:07:22.000Z,5
2023-01-15T04:08:39.000Z,5
2023-01-15T04:09:55.000Z,5
2023-01-15T04:11:11.000Z,5
2023-01-15T04:12:27.000Z,5
2023-01-15T04:13:44.000Z,5
2023-01-15T04:15:00.000Z,5
2023-01-15T04:16:15.000Z,5
2023-01-15T04:17:31.000Z,5
2023-01-15T04:18:48.000Z,5
2023-01-15T04:20:04.000Z,5
2023-01-15T04:21:20.000Z,5
2023-01-15T04:22:36.000Z,5
2023-01-15T04:23:53.000Z,5
2023-01-15T04:25:08.000Z,5
2023-01-15T04:26:23.000Z,5
2023-01-15T04:27:38.000Z,5
2023-01-15T04:28:54.000Z,5
2023-01-15T04:30:10.000Z,5
2023-01-15T04:31:26.000Z,5
2023-01-15T04:32:42.000Z,5
2023-01-15T04:33:59.000Z,5
2023-01-15T04:35:15.000Z,5
2023-01-15T04:36:31.000Z,5
2023-01-15T04:37:47.000Z,5
2023-01-15T04:39:03.000Z,5
2023-01-15T04:40:20.000Z,5
2023-01-15T04:41:36.000Z,5
2023-01-15T04:42:52.000Z,5
2023-01-15T04:44:08.000Z,5
2023-01-15T04:45:24.000Z,5
2023-01-15T04:46:40.000Z,5
2023-01-15T04:47:56.000Z,5
2023-01-15T04:49:12.000Z,5
2023-01-15T04:50:29.000Z,5
2023-01-15T04:51:45.000Z,5
2023-01-15T04:53:01.000Z,5
2023-01-15T04:54:16.000Z,5
2023-01-15T04:55:32.000Z,5
2023-01-15T04:56:48.000Z,5
2023-01-15T04:58:03.000Z,5
2023-01-15T04:59:18.000Z,5
2023-01-15T05:00:35.000Z,5
2023-01-15T05:01:51.000Z,5
2023-01-15T05:03:07.000Z,5
2023-01-15T05:04:23.000Z,5
2023-01-15T05:05:39.000Z,5
2023-01-15T05:06:56.000Z,5
2023-01-15T05:08:12.000Z,5
2023-01-15T05:09:28.000Z,5
2023-01-15T05:10:44.000Z,5
2023-01-15T05:12:01.000Z,5
2023-01-15T05:13:17.000Z,5
2023-01-15T05:14:33.000Z,5
2023-01-15T05:15:48.000Z,5
2023-01-15T05:17:05.000Z,5
2023-01-15T05:18:21.000Z,5
2023-01-15T05:19:37.000Z,5
2023-01-15T05:20:53.000Z,5
2023-01-15T05:22:10.000Z,5
2023-01-15T05:23:26.000Z,5
2023-01-15T05:24:41.000Z,5
2023-01-15T05:25:56.000Z,5
2023-01-15T05:27:13.000Z,5
2023-01-15T05:28:28.000Z,5
2023-01-15T05:29:44.000Z,5
2023-01-15T05:31:00.000Z,5
2023-01-15T05:32:17.000Z,5
2023-01-15T05:33:33.000Z,5
2023-01-15T05:34:49.000Z,5
2023-01-15T05:36:05.000Z,5
2023-01-15T05:37:22.000Z,5
2023-01-15T05:38:38.000Z,5
2023-01-15T05:39:54.000Z,5
2023-01-15T05:41:10.000Z,5
2023-01-15T05:42:26.000Z,5
2023-01-15T05:43:43.000Z,5
2023-01-15T05:44:58.000Z,5
2023-01-15T05:46:14.000Z,5
2023-01-15T05:47:30.000Z,5
2023-01-15T05:48:47.000Z,5
2023-01-15T05:50:03.000Z,5
2023-01-15T05:51:19.000Z,5
2023-01-15T05:52:35.000Z,5
2023-01-15T05:53:51.000Z,5
2023-01-15T05:55:06.000Z,5
2023-01-15T05:56:22.000Z,5
2023-01-15T05:57:37.000Z,5
2023-01-15T05:58:53.000Z,5
2023-01-15T06:00:09.000Z,5
2023-01-15T06:01:25.000Z,5
2023-01-15T06:02:41.000Z,5
2023-01-15T06:03:58.000Z,5
2023-01-15T06:05:14.000Z,5
2023-01-15T06:06:30.000Z,5
2023-01-15T06:07:46.000Z,5
2023-01-15T06:09:02.000Z,5
2023-01-15T06:10:18.000Z,5
2023-01-15T06:11:34.000Z,5
2023-01-15T06:12:50.000Z,5
2023-01-15T06:14:06.000Z,5
2023-01-15T06:15:23.000Z,5
2023-01-15T06:16:39.000Z,5
2023-01-15T06:17:55.000Z,5
2023-01-15T06:19:11.000Z,5
2023-01-15T06:20:28.000Z,5
2023-01-15T06:21:44.000Z,5
2023-01-15T06:23:00.000Z,5
2023-01-15T06:24:15.000Z,5
2023-01-15T06:25:31.000Z,5
2023-01-15T06:26:47.000Z,5
2023-01-15T06:28:02.000Z,5
2023-01-15T06:29:17.000Z,5
2023-01-15T06:30:34.000Z,5
2023-01-15T06:31:50.000Z,5
2023-01-15T06:33:06.000Z,5
2023-01-15T06:34:22.000Z,5
2023-01-15T06:35:39.000Z,5
2023-01-15T06:36:55.000Z,5
2023-01-15T06:38:11.000Z,5
2023-01-15T06:39:27.000Z,5
2023-01-15T06:40:43.000Z,5
2023-01-15T06:42:00.000Z,5
2023-01-15T06:43:16.000Z,5
2023-01-15T06:44:32.000Z,5
2023-01-15T06:45:47.000Z,5
2023-01-15T06:47:04.000Z,5
2023-01-15T06:48:20.000Z,5
2023-01-15T06:49:36.000Z,5
2023-01-15T06:50:52.000Z,5
2023-01-15T06:52:09.000Z,5
2023-01-15T06:53:25.000Z,5
2023-01-15T06:54:40.000Z,5
2023-01-15T06:55:55.000Z,5
2023-01-15T06:57:12.000Z,5
2023-01-15T06:58:27.000Z,5
2023-01-15T06:59:42.000Z,5
2023-01-15T07:00:58.000Z,5
2023-01-15T07:02:15.000Z,5
2023-01-15T07:03:31.000Z,5
2023-01-15T07:04:47.000Z,5
2023-01-15T07:06:03.000Z,5
2023-01-15T07:07:19.000Z,5
2023-01-15T07:08:36.000Z,5
2023-01-15T07:09:52.000Z,5
2023-01-15T07:11:08.000Z,5
2023-01-15T07:12:24.000Z,5
2023-01-15T07:13:41.000Z,5
2023-01-15T07:14:57.000Z,5
2023-01-15T07:16:12.000Z,5
2023-01-15T07:17:28.000Z,5
2023-01-15T07:18:45.000Z,11
2023-01-15T07:20:01.000Z,0
2023-01-15T07:21:17.000Z,0
2023-01-15T07:22:33.000Z,0
2023-01-15T07:23:50.000Z,0
2023-01-15T07:25:05.000Z,0
2023-01-15T07:26:20.000Z,0
2023-01-15T07:27:36.000Z,0
2023-01-15T07:28:53.000Z,0
2023-01-15T07:30:09.000Z,5
2023-01-15T07:31:25.000Z,5
2023-01-15T07:32:41.000Z,5
2023-01-15T07:33:57.000Z,5
2023-01-15T07:35:14.000Z,5
2023-01-15T07:36:30.000Z,5
2023-01-15T07:37:46.000Z,5
2023-01-15T07:39:02.000Z,11
2023-01-15T07:40:19.000Z,11
2023-01-15T07:41:35.000Z,11
2023-01-15T07:42:50.000Z,11
2023-01-15T07:44:06.000Z,11
2023-01-15T07:45:23.000Z,16
2023-01-15T07:46:39.000Z,16
2023-01-15T07:47:55.000Z,22
2023-01-15T07:49:11.000Z,22
2023-01-15T07:50:28.000Z,22
2023-01-15T07:51:43.000Z,28
2023-01-15T07:52:58.000Z,28
2023-01-15T07:54:13.000Z,33
2023-01-15T07:55:29.000Z,33
2023-01-15T07:56:45.000Z,33
2023-01-15T07:58:01.000Z,33
2023-01-15T07:59:17.000Z,33
2023-01-15T08:00:33.000Z,39
2023-01-15T08:01:50.000Z,39
2023-01-15T08:03:06.000Z,33
2023-01-15T08:04:22.000Z,33
2023-01-15T08:05:38.000Z,28
2023-01-15T08:06:55.000Z,28
2023-01-15T08:08:11.000Z,22
2023-01-15T08:09:27.000Z,11
2023-01-15T08:10:43.000Z,5
2023-01-15T08:11:59.000Z,11
2023-01-15T08:13:15.000Z,28
2023-01-15T08:14:31.000Z,33
2023-01-15T08:15:47.000Z,45
2023-01-15T08:17:04.000Z,50
2023-01-15T08:18:20.000Z,61
2023-01-15T08:19:36.000Z,61
2023-01-15T08:20:51.000Z,56
2023-01-15T08:22:07.000Z,56
2023-01-15T08:23:22.000Z,61
2023-01-15T08:24:37.000Z,61
2023-01-15T08:25:53.000Z,61
2023-01-15T08:27:10.000Z,61
2023-01-15T08:28:26.000Z,61
2023-01-15T08:29:42.000Z,61
2023-01-15T08:30:58.000Z,61
2023-01-15T08:32:14.000Z,61
2023-01-15T08:33:31.000Z,67
2023-01-15T08:34:47.000Z,73
2023-01-15T08:36:03.000Z,78
2023-01-15T08:37:19.000Z,78
2023-01-15T08:38:36.000Z,78
2023-01-15T08:39:52.000Z,78
2023-01-15T08:41:07.000Z,78
2023-01-15T08:42:23.000Z,78
2023-01-15T08:43:40.000Z,78
2023-01-15T08:44:56.000Z,78
2023-01-15T08:46:12.000Z,78
2023-01-15T08:47:28.000Z,78
2023-01-15T08:48:44.000Z,84
2023-01-15T08:50:00.000Z,84
2023-01-15T08:51:15.000Z,84
2023-01-15T08:52:31.000Z,84
2023-01-15T08:53:47.000Z,73
2023-01-15T08:55:04.000Z,78
2023-01-15T08:56:20.000Z,78
2023-01-15T08:57:36.000Z,78
2023-01-15T08:58:52.000Z,84
2023-01-15T09:00:09.000Z,90
2023-01-15T09:01:25.000Z,84
2023-01-15T09:02:41.000Z,78
2023-01-15T09:03:57.000Z,78
2023-01-15T09:05:14.000Z,78
2023-01-15T09:06:30.000Z,78
2023-01-15T09:07:45.000Z,84
2023-01-15T09:09:01.000Z,90
2023-01-15T09:10:18.000Z,95
2023-01-15T09:11:34.000Z,101
2023-01-15T09:12:50.000Z,101
2023-01-15T09:14:06.000Z,101
2023-01-15T09:15:22.000Z,101
2023-01-15T09:16:38.000Z,101
2023-01-15T09:17:53.000Z,118
2023-01-15T09:19:08.000Z,151
2023-01-15T09:20:24.000Z,163
2023-01-15T09:21:40.000Z,157
2023-01-15T09:22:56.000Z,180
2023-01-15T09:24:11.000Z,185
2023-01-15T09:25:26.000Z,185
2023-01-15T09:26:43.000Z,180
2023-01-15T09:27:59.000Z,185
2023-01-15T09:29:15.000Z,196
2023-01-15T09:30:31.000Z,202
2023-01-15T09:31:48.000Z,191
2023-01-15T09:33:04.000Z,208
2023-01-15T09:34:20.000Z,219
2023-01-15T09:35:36.000Z,202
2023-01-15T09:36:53.000Z,230
2023-01-15T09:38:09.000Z,196
2023-01-15T09:39:25.000Z,157
2023-01-15T09:40:41.000Z,180
2023-01-15T09:41:57.000Z,219
2023-01-15T09:43:13.000Z,219
2023-01-15T09:44:29.000Z,191
2023-01-15T09:45:45.000Z,174
2023-01-15T09:47:01.000Z,180
2023-01-15T09:48:18.000Z,174
2023-01-15T09:49:34.000Z,180
2023-01-15T09:50:49.000Z,191
2023-01-15T09:52:04.000Z,191
2023-01-15T09:53:20.000Z,202
2023-01-15T09:54:35.000Z,202
2023-01-15T09:55:51.000Z,185
2023-01-15T09:57:07.000Z,202
2023-01-15T09:58:24.000Z,191
2023-01-15T09:59:40.000Z,196
2023-01-15T10:00:56.000Z,180
2023-01-15T10:02:12.000Z,185
2023-01-15T10:03:29.000Z,196
2023-01-15T10:04:45.000Z,241
2023-01-15T10:06:01.000Z,253
2023-01-15T10:07:17.000Z,281
2023-01-15T10:08:34.000Z,281
2023-01-15T10:09:50.000Z,247
2023-01-15T10:11:05.000Z,236
2023-01-15T10:12:21.000Z,270
2023-01-15T10:13:38.000Z,219
2023-01-15T10:14:54.000Z,286
2023-01-15T10:16:10.000Z,286
2023-01-15T10:17:26.000Z,225
2023-01-15T10:18:42.000Z,286
2023-01-15T10:19:58.000Z,292
2023-01-15T10:21:13.000Z,213
2023-01-15T10:22:29.000Z,157
2023-01-15T10:23:44.000Z,196
2023-01-15T10:25:00.000Z,174
2023-01-15T10:26:16.000Z,185
2023-01-15T10:27:32.000Z,191
2023-01-15T10:28:48.000Z,202
2023-01-15T10:30:05.000Z,213
2023-01-15T10:31:21.000Z,236
2023-01-15T10:32:37.000Z,191
2023-01-15T10:33:53.000Z,202
2023-01-15T10:35:10.000Z,241
2023-01-15T10:36:26.000Z,286
2023-01-15T10:37:42.000Z,213
2023-01-15T10:38:58.000Z,168
2023-01-15T10:40:15.000Z,219
2023-01-15T10:41:30.000Z,236
2023-01-15T10:42:46.000Z,270
2023-01-15T10:44:02.000Z,247
2023-01-15T10:45:18.000Z,241
2023-01-15T10:46:35.000Z,264
2023-01-15T10:47:51.000Z,264
2023-01-15T10:49:07.000Z,241
2023-01-15T10:50:22.000Z,219
2023-01-15T10:51:38.000Z,225
2023-01-15T10:52:54.000Z,213
2023-01-15T10:54:09.000Z,202
2023-01-15T10:55:24.000Z,196
2023-01-15T10:56:41.000Z,241
2023-01-15T10:57:57.000Z,253
2023-01-15T10:59:13.000Z,253
2023-01-15T11:00:29.000Z,219
2023-01-15T11:01:46.000Z,236
2023-01-15T11:03:02.000Z,241
2023-01-15T11:04:18.000Z,303
2023-01-15T11:05:34.000Z,241
2023-01-15T11:06:51.000Z,230
2023-01-15T11:08:07.000Z,213
2023-01-15T11:09:23.000Z,236
2023-01-15T11:10:39.000Z,247
2023-01-15T11:11:54.000Z,241
2023-01-15T11:13:11.000Z,236
2023-01-15T11:14:27.000Z,230
2023-01-15T11:15:43.000Z,298
2023-01-15T11:16:59.000Z,213
2023-01-15T11:18:16.000Z,247
2023-01-15T11:19:32.000Z,253
2023-01-15T11:20:47.000Z,219
2023-01-15T11:22:02.000Z,180
2023-01-15T11:23:19.000Z,225
2023-01-15T11:24:34.000Z,241
2023-01-15T11:25:49.000Z,236
2023-01-15T11:27:05.000Z,196
2023-01-15T11:28:22.000Z,151
2023-01-15T11:29:38.000Z,213
2023-01-15T11:30:54.000Z,196
2023-01-15T11:32:10.000Z,191
2023-01-15T11:33:27.000Z,191
2023-01-15T11:34:43.000Z,213
2023-01-15T11:35:59.000Z,230
2023-01-15T11:37:15.000Z,241
2023-01-15T11:38:31.000Z,247
2023-01-15T11:39:48.000Z,230
2023-01-15T11:41:04.000Z,196
2023-01-15T11:42:19.000Z,191
2023-01-15T11:43:35.000Z,253
2023-01-15T11:44:52.000Z,264
2023-01-15T11:46:08.000Z,309
2023-01-15T11:47:24.000Z,258
2023-01-15T11:48:40.000Z,281
2023-01-15T11:49:57.000Z,270
2023-01-15T11:51:12.000Z,281
2023-01-15T11:52:27.000Z,253
2023-01-15T11:53:43.000Z,337
2023-01-15T11:55:00.000Z,326
2023-01-15T11:56:15.000Z,298
2023-01-15T11:57:30.000Z,264
2023-01-15T11:58:46.000Z,264
2023-01-15T12:00:03.000Z,281
2023-01-15T12:01:19.000Z,320
2023-01-15T12:02:35.000Z,247
2023-01-15T12:03:51.000Z,174
2023-01-15T12:05:08.000Z,157
2023-01-15T12:06:24.000Z,146
2023-01-15T12:07:40.000Z,140
2023-01-15T12:08:56.000Z,140
2023-01-15T12:10:12.000Z,191
2023-01-15T12:11:29.000Z,236
2023-01-15T12:12:45.000Z,196
2023-01-15T12:14:00.000Z,168
2023-01-15T12:15:16.000Z,157
2023-01-15T12:16:33.000Z,146
2023-01-15T12:17:49.000Z,168
2023-01-15T12:19:05.000Z,196
2023-01-15T12:20:21.000Z,202
2023-01-15T12:21:38.000Z,168
2023-01-15T12:22:53.000Z,135
2023-01-15T12:24:08.000Z,185
2023-01-15T12:25:24.000Z,191
2023-01-15T12:26:41.000Z,151
2023-01-15T12:27:57.000Z,151
2023-01-15T12:29:13.000Z,151
2023-01-15T12:30:29.000Z,140
2023-01-15T12:31:45.000Z,135
2023-01-15T12:33:02.000Z,112
2023-01-15T12:34:18.000Z,123
2023-01-15T12:35:34.000Z,118
2023-01-15T12:36:50.000Z,118
2023-01-15T12:38:07.000Z,123
2023-01-15T12:39:23.000Z,90
2023-01-15T12:40:38.000Z,90
2023-01-15T12:41:54.000Z,118
2023-01-15T12:43:11.000Z,185
2023-01-15T12:44:27.000Z,264
2023-01-15T12:45:43.000Z,326
2023-01-15T12:46:59.000Z,343
2023-01-15T12:48:16.000Z,258
2023-01-15T12:49:31.000Z,196
2023-01-15T12:50:46.000Z,180
2023-01-15T12:52:02.000Z,196
2023-01-15T12:53:19.000Z,196
2023-01-15T12:54:35.000Z,264
2023-01-15T12:55:51.000Z,331
2023-01-15T12:57:07.000Z,343
2023-01-15T12:58:23.000Z,303
2023-01-15T12:59:40.000Z,225
2023-01-15T13:00:56.000Z,225
2023-01-15T13:02:12.000Z,270
2023-01-15T13:03:28.000Z,219
2023-01-15T13:04:45.000Z,180
2023-01-15T13:06:01.000Z,174
2023-01-15T13:07:16.000Z,146
2023-01-15T13:08:32.000Z,185
2023-01-15T13:09:49.000Z,151
2023-01-15T13:11:05.000Z,123
2023-01-15T13:12:21.000Z,129
2023-01-15T13:13:37.000Z,146
2023-01-15T13:14:54.000Z,135
2023-01-15T13:16:09.000Z,123
2023-01-15T13:17:24.000Z,157
2023-01-15T13:18:39.000Z,225
2023-01-15T13:19:55.000Z,219
2023-01-15T13:21:10.000Z,253
2023-01-15T13:22:25.000Z,253
2023-01-15T13:23:41.000Z,270
2023-01-15T13:24:58.000Z,286
2023-01-15T13:26:14.000Z,270
2023-01-15T13:27:30.000Z,275
2023-01-15T13:28:46.000Z,230
2023-01-15T13:30:02.000Z,264
2023-01-15T13:31:19.000Z,264
2023-01-15T13:32:35.000Z,253
2023-01-15T13:33:51.000Z,247
2023-01-15T13:35:07.000Z,225
2023-01-15T13:36:24.000Z,191
2023-01-15T13:37:40.000Z,185
2023-01-15T13:38:55.000Z,174
2023-01-15T13:40:11.000Z,123
2023-01-15T13:41:28.000Z,163
2023-01-15T13:42:44.000Z,151
2023-01-15T13:44:00.000Z,95
2023-01-15T13:45:16.000Z,106
2023-01-15T13:46:33.000Z,90
2023-01-15T13:47:48.000Z,101
2023-01-15T13:49:03.000Z,106
2023-01-15T13:50:18.000Z,106
2023-01-15T13:51:34.000Z,129
2023-01-15T13:52:50.000Z,129
2023-01-15T13:54:06.000Z,123
2023-01-15T13:55:22.000Z,123
2023-01-15T13:56:38.000Z,112
2023-01-15T13:57:55.000Z,135
2023-01-15T13:59:11.000Z,157
2023-01-15T14:00:27.000Z,208
2023-01-15T14:01:43.000Z,151
2023-01-15T14:03:00.000Z,123
2023-01-15T14:04:16.000Z,78
2023-01-15T14:05:32.000Z,67
2023-01-15T14:06:48.000Z,78
2023-01-15T14:08:04.000Z,101
2023-01-15T14:09:20.000Z,84
2023-01-15T14:10:36.000Z,78
2023-01-15T14:11:52.000Z,84
2023-01-15T14:13:09.000Z,78
2023-01-15T14:14:25.000Z,95
2023-01-15T14:15:41.000Z,101
2023-01-15T14:16:56.000Z,95
2023-01-15T14:18:12.000Z,101
2023-01-15T14:19:27.000Z,157
2023-01-15T14:20:42.000Z,146
2023-01-15T14:21:58.000Z,174
2023-01-15T14:23:15.000Z,163
2023-01-15T14:24:31.000Z,146
2023-01-15T14:25:47.000Z,140
2023-01-15T14:27:03.000Z,135
2023-01-15T14:28:19.000Z,106
2023-01-15T14:29:36.000Z,101
2023-01-15T14:30:52.000Z,118
2023-01-15T14:32:08.000Z,95
2023-01-15T14:33:24.000Z,84
2023-01-15T14:34:41.000Z,61
2023-01-15T14:35:57.000Z,39
2023-01-15T14:37:12.000Z,39
2023-01-15T14:38:27.000Z,56
2023-01-15T14:39:44.000Z,67
2023-01-15T14:41:00.000Z,73
2023-01-15T14:42:16.000Z,67
2023-01-15T14:43:32.000Z,45
2023-01-15T14:44:49.000Z,50
2023-01-15T14:46:04.000Z,45
2023-01-15T14:47:19.000Z,39
2023-01-15T14:48:35.000Z,61
2023-01-15T14:49:51.000Z,73
2023-01-15T14:51:06.000Z,61
2023-01-15T14:52:22.000Z,45
2023-01-15T14:53:38.000Z,39
2023-01-15T14:54:54.000Z,39
2023-01-15T14:56:11.000Z,33
2023-01-15T14:57:27.000Z,22
2023-01-15T14:58:43.000Z,28
2023-01-15T14:59:59.000Z,28
2023-01-15T15:01:16.000Z,22
2023-01-15T15:02:32.000Z,22
2023-01-15T15:03:48.000Z,22
2023-01-15T15:05:04.000Z,16
2023-01-15T15:06:21.000Z,16
2023-01-15T15:07:36.000Z,11
2023-01-15T15:08:52.000Z,11
2023-01-15T15:10:08.000Z,5
2023-01-15T15:11:25.000Z,5
2023-01-15T15:12:41.000Z,11
2023-01-15T15:13:57.000Z,11
2023-01-15T15:15:13.000Z,16
2023-01-15T15:16:29.000Z,16
2023-01-15T15:17:44.000Z,11
2023-01-15T15:19:00.000Z,11
2023-01-15T15:20:15.000Z,16
2023-01-15T15:21:31.000Z,11
2023-01-15T15:22:47.000Z,22
2023-01-15T15:24:03.000Z,22
2023-01-15T15:25:19.000Z,22
2023-01-15T15:26:35.000Z,22
2023-01-15T15:27:52.000Z,11
2023-01-15T15:29:08.000Z,11
2023-01-15T15:30:24.000Z,11
2023-01-15T15:31:40.000Z,11
2023-01-15T15:32:57.000Z,11
2023-01-15T15:34:13.000Z,11
2023-01-15T15:35:29.000Z,11
2023-01-15T15:36:45.000Z,11
2023-01-15T15:38:01.000Z,5
2023-01-15T15:39:17.000Z,11
2023-01-15T15:40:33.000Z,5
2023-01-15T15:41:49.000Z,16
2023-01-15T15:43:06.000Z,5
2023-01-15T15:44:22.000Z,5
2023-01-15T15:45:38.000Z,5
2023-01-15T15:46:53.000Z,0
2023-01-15T15:48:08.000Z,0
2023-01-15T15:49:25.000Z,0
2023-01-15T15:50:40.000Z,0
2023-01-15T15:51:55.000Z,0
2023-01-15T15:53:11.000Z,0
2023-01-15T15:54:28.000Z,0
2023-01-15T15:55:44.000Z,5
2023-01-15T15:57:00.000Z,5
2023-01-15T15:58:16.000Z,11
2023-01-15T15:59:33.000Z,11
2023-01-15T16:00:49.000Z,5
2023-01-15T16:02:05.000Z,5
2023-01-15T16:03:21.000Z,5
2023-01-15T16:04:38.000Z,5
2023-01-15T16:05:54.000Z,5
2023-01-15T16:07:10.000Z,5
2023-01-15T16:08:25.000Z,5
2023-01-15T16:09:42.000Z,5
2023-01-15T16:10:58.000Z,5
2023-01-15T16:12:14.000Z,5
2023-01-15T16:13:30.000Z,5
2023-01-15T16:14:46.000Z,5
2023-01-15T16:16:03.000Z,5
2023-01-15T16:17:18.000Z,5
2023-01-15T16:18:33.000Z,5
2023-01-15T16:19:49.000Z,5
2023-01-15T16:21:06.000Z,5
2023-01-15T16:22:21.000Z,5
2023-01-15T16:23:36.000Z,5
2023-01-15T16:24:52.000Z,5
2023-01-15T16:26:09.000Z,5
2023-01-15T16:27:25.000Z,5
2023-01-15T16:28:41.000Z,5
2023-01-15T16:29:57.000Z,5
2023-01-15T16:31:14.000Z,5
2023-01-15T16:32:30.000Z,5
2023-01-15T16:33:46.000Z,5
2023-01-15T16:35:02.000Z,5
2023-01-15T16:36:19.000Z,5
2023-01-15T16:37:35.000Z,5
2023-01-15T16:38:51.000Z,5
2023-01-15T16:40:06.000Z,5
2023-01-15T16:41:22.000Z,5
2023-01-15T16:42:39.000Z,5
2023-01-15T16:43:55.000Z,5
2023-01-15T16:45:11.000Z,5
2023-01-15T16:46:27.000Z,5
2023-01-15T16:47:44.000Z,5
2023-01-15T16:48:59.000Z,5
2023-01-15T16:50:14.000Z,5
2023-01-15T16:51:29.000Z,5
2023-01-15T16:52:45.000Z,5
2023-01-15T16:54:01.000Z,5
2023-01-15T16:55:17.000Z,5
2023-01-15T16:56:33.000Z,5
2023-01-15T16:57:50.000Z,5
2023-01-15T16:59:06.000Z,5
2023-01-15T17:00:22.000Z,5
2023-01-15T17:01:38.000Z,5
2023-01-15T17:02:55.000Z,5
2023-01-15T17:04:11.000Z,5
2023-01-15T17:05:27.000Z,5
2023-01-15T17:06:43.000Z,5
2023-01-15T17:07:59.000Z,5
2023-01-15T17:09:15.000Z,5
2023-01-15T17:10:31.000Z,5
2023-01-15T17:11:47.000Z,5
2023-01-15T17:13:03.000Z,5
2023-01-15T17:14:20.000Z,5
2023-01-15T17:15:36.000Z,5
2023-01-15T17:16:52.000Z,5
2023-01-15T17:18:07.000Z,5
2023-01-15T17:19:23.000Z,5
2023-01-15T17:20:39.000Z,5
2023-01-15T17:21:54.000Z,5
2023-01-15T17:23:09.000Z,5
2023-01-15T17:24:26.000Z,5
2023-01-15T17:25:42.000Z,5
2023-01-15T17:26:58.000Z,5
2023-01-15T17:28:14.000Z,5
2023-01-15T17:29:31.000Z,5
2023-01-15T17:30:47.000Z,5
2023-01-15T17:32:03.000Z,5
2023-01-15T17:33:19.000Z,5
2023-01-15T17:34:36.000Z,5
2023-01-15T17:35:52.000Z,5
2023-01-15T17:37:08.000Z,5
2023-01-15T17:38:24.000Z,5
2023-01-15T17:39:39.000Z,5
2023-01-15T17:40:56.000Z,5
2023-01-15T17:42:12.000Z,5
2023-01-15T17:43:28.000Z,5
2023-01-15T17:44:44.000Z,5
2023-01-15T17:46:01.000Z,5
2023-01-15T17:47:17.000Z,5
2023-01-15T17:48:32.000Z,5
2023-01-15T17:49:47.000Z,5
2023-01-15T17:51:04.000Z,5
2023-01-15T17:52:19.000Z,5
2023-01-15T17:53:34.000Z,5
2023-01-15T17:54:50.000Z,5
2023-01-15T17:56:07.000Z,5
2023-01-15T17:57:23.000Z,5
2023-01-15T17:58:39.000Z,5
2023-01-15T17:59:55.000Z,5
2023-01-15T18:01:12.000Z,5
2023-01-15T18:02:28.000Z,5
2023-01-15T18:03:44.000Z,5
2023-01-15T18:05:00.000Z,5
2023-01-15T18:06:16.000Z,5
2023-01-15T18:07:33.000Z,5
2023-01-15T18:08:49.000Z,5
2023-01-15T18:10:04.000Z,5
2023-01-15T18:11:20.000Z,5
2023-01-15T18:12:37.000Z,5
2023-01-15T18:13:53.000Z,5
2023-01-15T18:15:09.000Z,5